Terminal Aerodrome Forecast
Issued by NWS

Home | Current Version | Previous Version | Text Only | Print | Product List | Glossary On
Versions: 1 2 3 4 5 6 7 8 9 10 11 12 13 14
000
FTUS42 TJSJ 250540
TAFJSJ
TAF
TJSJ 250540Z 2506/2606 09008KT P6SM VCSH FEW025
     FM251300 07015KT P6SM FEW025 SCT050
     FM252330 08006KT P6SM VCSH SCT025=

USA.gov is the U.S. government's official web portal to all federal, state and local government web resources and services.